Time;durP1;ratioP1;P1;durP2;ratioP2;P2;SDS_P1;SDS_P2;PMS_P1;PMS_P2;Temp;Humidity;BMP_temperature;BMP_pressure;BME280_temperature;BME280_humidity;BME280_pressure;Samples;Min_cycle;Max_cycle;Signal;HPM_P1;HPM_P2
2023/10/21 00:02:14;;;;;;;30.00;17.40;;;;;;;-144.30;94.13;85839.78;5054208;28;20679;-58
2023/10/21 00:04:41;;;;;;;24.37;16.60;;;;;;;-144.30;94.41;85837.78;5053692;28;20199;-58
2023/10/21 00:07:08;;;;;;;26.77;16.37;;;;;;;-144.30;94.60;85839.78;5053503;28;20221;-58
2023/10/21 00:09:34;;;;;;;23.67;16.67;;;;;;;-144.30;94.79;85887.50;5053604;28;20588;-53
2023/10/21 00:12:01;;;;;;;27.63;17.37;;;;;;;-144.30;95.15;85805.97;5053873;28;20291;-53
2023/10/21 00:14:28;;;;;;;25.83;16.17;;;;;;;-144.30;94.72;85843.75;5053423;28;20192;-54
2023/10/21 00:16:55;;;;;;;34.43;17.87;;;;;;;-144.30;94.24;85813.94;5053313;28;20189;-53
2023/10/21 00:19:23;;;;;;;30.70;18.17;;;;;;;-144.30;94.65;85829.84;5053277;28;20196;-53
2023/10/21 00:21:50;;;;;;;26.33;17.13;;;;;;;-144.30;95.33;85843.75;5053375;28;20193;-52
2023/10/21 00:24:17;;;;;;;33.57;17.83;;;;;;;-144.30;95.82;85841.75;5053102;28;20200;-52
2023/10/21 00:26:47;;;;;;;33.07;17.27;;;;;;;-144.30;96.34;85893.44;5053136;28;20224;-53
2023/10/21 00:29:14;;;;;;;29.73;17.30;;;;;;;-144.30;96.79;85851.69;5052956;28;20228;-52
2023/10/21 00:31:41;;;;;;;27.97;18.13;;;;;;;-144.30;96.66;85851.69;5053193;28;20224;-53
2023/10/21 00:34:08;;;;;;;28.17;18.00;;;;;;;-144.30;96.59;85859.66;5053377;28;20635;-53
2023/10/21 00:36:36;;;;;;;28.77;17.03;;;;;;;-144.30;96.62;85901.41;5053217;28;20193;-53
2023/10/21 00:39:03;;;;;;;26.80;16.77;;;;;;;-144.30;96.63;85867.59;5052849;28;20208;-53
2023/10/21 00:41:30;;;;;;;26.37;17.17;;;;;;;-144.30;96.50;85849.72;5053132;28;20292;-57
2023/10/21 00:43:57;;;;;;;28.57;18.00;;;;;;;-144.30;96.91;85825.84;5052758;28;20197;-57
2023/10/21 00:46:26;;;;;;;28.43;18.20;;;;;;;-144.30;96.63;85873.56;5052891;28;20692;-58
2023/10/21 00:48:53;;;;;;;29.27;17.20;;;;;;;-144.30;96.49;85871.59;5052935;28;20228;-53
2023/10/21 00:51:21;;;;;;;26.20;16.80;;;;;;;-144.30;96.39;85873.56;5052551;28;20197;-53
2023/10/21 00:53:49;;;;;;;32.97;18.03;;;;;;;-144.30;96.24;85853.69;5052986;28;20196;-58
2023/10/21 00:56:16;;;;;;;24.97;17.37;;;;;;;-144.30;96.14;85867.59;5052651;28;20211;-57
2023/10/21 00:58:43;;;;;;;24.23;16.70;;;;;;;-144.30;95.96;85889.47;5052608;28;20251;-58
2023/10/21 01:01:13;;;;;;;22.17;16.23;;;;;;;-144.30;95.61;85847.72;5052793;28;20201;-58
2023/10/21 01:03:40;;;;;;;25.83;17.33;;;;;;;-144.30;95.77;85893.44;5052688;28;20687;-58
2023/10/21 01:06:07;;;;;;;25.57;16.33;;;;;;;-144.30;96.05;85921.28;5052561;28;20593;-57
2023/10/21 01:08:41;;;;;;;26.83;17.27;;;;;;;-144.30;96.06;85829.84;5051518;28;20231;-58
2023/10/21 01:11:09;;;;;;;24.77;16.03;;;;;;;-144.30;96.19;85891.47;5052548;28;20196;-58
2023/10/21 01:13:36;;;;;;;25.30;16.73;;;;;;;-144.30;95.64;85869.59;5052450;28;20208;-58
2023/10/21 01:16:03;;;;;;;29.03;15.53;;;;;;;-144.30;95.75;85875.56;5052242;28;20207;-58
2023/10/21 01:18:33;;;;;;;23.33;15.50;;;;;;;-144.30;95.47;85849.72;5051916;28;20199;-58
2023/10/21 01:21:01;;;;;;;23.20;16.63;;;;;;;-144.30;95.42;85881.53;5052155;28;20228;-58
2023/10/21 01:23:30;;;;;;;25.23;16.77;;;;;;;-144.30;95.47;85885.50;5052324;28;20196;-53
2023/10/21 01:25:57;;;;;;;24.53;16.10;;;;;;;-144.30;95.75;85833.81;5052310;28;20583;-52
2023/10/21 01:28:24;;;;;;;24.43;16.07;;;;;;;-144.30;95.70;85869.59;5051718;28;20241;-57
2023/10/21 01:30:51;;;;;;;23.70;15.83;;;;;;;-144.30;95.88;85923.28;5051943;28;20687;-53
2023/10/21 01:33:17;;;;;;;21.97;15.63;;;;;;;-144.30;95.91;85867.59;5052158;28;20686;-57
2023/10/21 01:35:44;;;;;;;28.00;16.67;;;;;;;-144.30;96.06;85909.34;5051841;28;20197;-57
2023/10/21 01:38:11;;;;;;;25.33;16.53;;;;;;;-144.30;96.32;85909.34;5051869;28;20653;-57
2023/10/21 01:40:40;;;;;;;29.70;17.13;;;;;;;-144.30;96.40;85877.53;5052078;28;20665;-58
2023/10/21 01:43:07;;;;;;;28.40;17.07;;;;;;;-144.30;96.71;85893.44;5051780;28;20206;-58
2023/10/21 01:45:35;;;;;;;25.20;17.50;;;;;;;-144.30;96.93;85899.41;5051519;28;20240;-53
2023/10/21 01:48:02;;;;;;;27.83;16.53;;;;;;;-144.30;97.24;85945.16;5051796;28;20645;-52
2023/10/21 01:50:30;;;;;;;25.90;16.70;;;;;;;-144.30;97.92;85945.16;5051633;28;20197;-53
2023/10/21 01:52:57;;;;;;;29.53;17.97;;;;;;;-144.30;98.47;85921.28;5051544;28;20238;-52
2023/10/21 01:55:24;;;;;;;23.90;17.07;;;;;;;-144.30;98.60;85925.25;5051587;28;20201;-51
2023/10/21 01:57:52;;;;;;;30.70;17.77;;;;;;;-144.30;98.80;85909.34;5051570;28;20197;-52
2023/10/21 02:00:20;;;;;;;26.17;18.33;;;;;;;-144.30;98.62;85949.13;5051388;28;20223;-58
2023/10/21 02:02:50;;;;;;;28.57;18.83;;;;;;;-144.30;98.77;85929.25;5051510;28;20630;-58
2023/10/21 02:05:18;;;;;;;30.43;18.50;;;;;;;-144.30;98.74;85919.31;5051310;28;20201;-58
2023/10/21 02:07:45;;;;;;;26.07;18.17;;;;;;;-144.30;98.86;85911.34;5051577;28;20810;-58
2023/10/21 02:10:12;;;;;;;28.33;18.20;;;;;;;-144.30;98.65;85947.13;5051269;28;20197;-57
2023/10/21 02:12:39;;;;;;;28.63;18.83;;;;;;;-144.30;98.82;85758.25;5051107;28;20688;-58
2023/10/21 02:15:11;;;;;;;27.97;19.33;;;;;;;-144.30;99.06;85913.34;5051104;28;20192;-58
2023/10/21 02:17:39;;;;;;;29.40;19.40;;;;;;;-144.30;99.15;85925.25;5051216;28;20228;-57
2023/10/21 02:20:08;;;;;;;30.43;19.00;;;;;;;-144.30;99.35;85917.31;5050231;28;20204;-54
2023/10/21 02:22:35;;;;;;;30.20;19.73;;;;;;;-144.30;99.54;85937.19;5050712;28;20211;-53
2023/10/21 02:25:02;;;;;;;24.00;19.23;;;;;;;-144.30;99.51;85939.19;5050815;28;20197;-52
2023/10/21 02:27:29;;;;;;;28.87;18.43;;;;;;;-144.30;99.66;85939.19;5050528;28;20220;-52
2023/10/21 02:29:56;;;;;;;32.33;18.77;;;;;;;-144.30;99.82;85945.16;5051054;28;20661;-53
2023/10/21 02:32:24;;;;;;;32.10;20.23;;;;;;;-144.30;99.86;85937.19;5050810;28;20203;-53
2023/10/21 02:34:55;;;;;;;26.57;18.60;;;;;;;-144.30;100.00;85967.03;5050687;28;20207;-57
2023/10/21 02:37:23;;;;;;;29.23;19.00;;;;;;;-144.30;99.64;85976.97;5050661;28;20195;-53
2023/10/21 02:39:50;;;;;;;30.87;18.83;;;;;;;-144.30;99.42;85951.13;5050503;28;20254;-53
2023/10/21 02:42:16;;;;;;;29.87;20.17;;;;;;;-144.30;99.52;85911.34;5050763;28;20211;-57
2023/10/21 02:44:44;;;;;;;29.00;19.80;;;;;;;-144.30;99.51;85947.13;5050885;28;20707;-58
2023/10/21 02:47:12;;;;;;;27.47;18.97;;;;;;;-144.30;99.56;85893.44;5050591;28;20284;-53
2023/10/21 02:49:40;;;;;;;28.97;19.03;;;;;;;-144.30;99.81;85929.25;5050365;28;20208;-52
2023/10/21 02:52:07;;;;;;;38.70;19.40;;;;;;;-144.30;99.79;85927.25;5050455;28;20562;-57
2023/10/21 02:54:34;;;;;;;30.57;19.43;;;;;;;-144.30;99.81;85949.13;5050467;28;20200;-57
2023/10/21 02:57:01;;;;;;;29.87;20.03;;;;;;;-144.30;99.84;85971.00;5050405;28;20566;-52
2023/10/21 02:59:28;;;;;;;32.70;18.60;;;;;;;-144.30;99.87;85976.97;5050256;28;20200;-53
2023/10/21 03:01:55;;;;;;;33.93;19.20;;;;;;;-144.30;99.64;85980.94;5050381;28;20201;-53
2023/10/21 03:04:22;;;;;;;34.97;18.63;;;;;;;-144.30;99.33;85971.00;5050314;28;20561;-58
2023/10/21 03:06:51;;;;;;;35.87;19.57;;;;;;;-144.30;99.45;85919.31;5050364;28;20586;-52
2023/10/21 03:09:18;;;;;;;28.17;18.73;;;;;;;-144.30;99.52;85945.16;5050641;28;20665;-57
2023/10/21 03:11:45;;;;;;;27.17;18.90;;;;;;;-144.30;99.81;85961.06;5050380;28;20197;-57
2023/10/21 03:14:12;;;;;;;27.70;18.83;;;;;;;-144.30;99.76;85941.16;5050083;28;20205;-57
2023/10/21 03:16:39;;;;;;;32.57;19.43;;;;;;;-144.30;99.75;85972.97;5050191;28;20284;-53
2023/10/21 03:19:05;;;;;;;27.07;18.50;;;;;;;-144.30;99.74;85984.91;5050154;28;20200;-53
2023/10/21 03:21:32;;;;;;;26.83;19.50;;;;;;;-144.30;99.72;85953.09;5050021;28;20219;-53
2023/10/21 03:24:01;;;;;;;30.47;19.23;;;;;;;-144.30;99.69;85971.00;5049990;28;20207;-53
2023/10/21 03:26:28;;;;;;;24.40;16.67;;;;;;;-144.30;99.88;85988.88;5050132;28;20601;-52
2023/10/21 03:28:55;;;;;;;30.83;17.87;;;;;;;-144.30;99.96;85969.00;5049710;28;20250;-52
2023/10/21 03:31:21;;;;;;;25.60;18.13;;;;;;;-144.30;100.00;85988.88;5045390;28;20208;-60
2023/10/21 03:33:48;;;;;;;26.53;17.43;;;;;;;-144.30;100.00;85984.91;5059801;28;20196;-59
2023/10/21 03:36:15;;;;;;;27.80;17.43;;;;;;;-144.30;99.78;85984.91;5069605;28;20204;-55
2023/10/21 03:38:43;;;;;;;26.70;18.87;;;;;;;-144.30;99.47;85990.88;5069638;28;20208;-53
2023/10/21 03:41:12;;;;;;;22.87;17.23;;;;;;;-144.30;99.46;85941.16;5069457;28;20208;-52
2023/10/21 03:43:40;;;;;;;24.17;17.03;;;;;;;-144.30;98.86;85905.38;5069485;28;20208;-58
2023/10/21 03:46:08;;;;;;;23.60;17.30;;;;;;;-144.30;98.74;85976.97;5068985;28;20196;-60
2023/10/21 03:48:35;;;;;;;25.17;18.07;;;;;;;-144.30;98.62;85692.66;5069618;28;20223;-59
2023/10/21 03:51:04;;;;;;;22.90;16.30;;;;;;;-144.30;98.38;85929.25;5069799;28;20203;-58
2023/10/21 03:53:32;;;;;;;27.37;17.57;;;;;;;-144.30;98.60;85945.16;5028689;28;20279;-58
2023/10/21 03:55:59;;;;;;;25.30;16.53;;;;;;;-144.30;98.55;85957.06;5047552;28;20288;-58
2023/10/21 03:58:28;;;;;;;29.93;17.23;;;;;;;-144.30;98.38;85921.28;5039236;28;20194;-59
2023/10/21 04:00:57;;;;;;;29.57;17.17;;;;;;;-144.30;98.46;85980.94;5028900;28;20194;-58
2023/10/21 04:03:25;;;;;;;25.53;17.33;;;;;;;-144.30;98.26;85969.00;5029403;28;20197;-58
2023/10/21 04:05:53;;;;;;;30.83;17.73;;;;;;;-144.30;98.18;85945.16;5029381;28;20748;-58
2023/10/21 04:08:20;;;;;;;27.37;17.07;;;;;;;-144.30;98.19;85921.28;5029159;28;20228;-58
2023/10/21 04:10:47;;;;;;;25.20;15.50;;;;;;;-144.30;98.42;85947.13;5029101;28;20263;-58
2023/10/21 04:13:14;;;;;;;24.57;16.47;;;;;;;-144.30;98.09;85945.16;5029121;28;20197;-58
2023/10/21 04:15:42;;;;;;;22.83;16.07;;;;;;;-144.30;97.69;85935.22;5029055;28;20289;-58
2023/10/21 04:18:09;;;;;;;24.90;16.70;;;;;;;-144.30;97.99;85971.00;5029268;28;20190;-58
2023/10/21 04:20:36;;;;;;;22.40;16.33;;;;;;;-144.30;98.20;85976.97;5029130;28;20700;-58
2023/10/21 04:23:03;;;;;;;24.20;16.50;;;;;;;-144.30;97.72;85913.34;5029067;28;20194;-58
2023/10/21 04:25:30;;;;;;;24.30;16.77;;;;;;;-144.30;98.19;85982.94;5029073;28;20197;-58
2023/10/21 04:27:57;;;;;;;27.20;17.53;;;;;;;-144.30;98.31;86016.72;5028750;28;20217;-58
2023/10/21 04:30:25;;;;;;;28.30;17.03;;;;;;;-144.30;98.04;85972.97;5028445;28;20200;-52
2023/10/21 04:32:53;;;;;;;22.00;16.70;;;;;;;-144.30;97.50;85969.00;5029474;28;20275;-52
2023/10/21 04:35:20;;;;;;;26.20;16.97;;;;;;;-144.30;97.51;85935.22;5032446;28;20194;-58
2023/10/21 04:37:48;;;;;;;22.90;16.80;;;;;;;-144.30;97.36;85917.31;5038180;28;20196;-58
2023/10/21 04:40:15;;;;;;;26.63;16.30;;;;;;;-144.30;97.44;85911.34;5038073;28;20189;-58
2023/10/21 04:42:43;;;;;;;23.97;16.63;;;;;;;-144.30;97.49;85937.19;5038476;28;20591;-58
2023/10/21 04:45:11;;;;;;;23.27;16.50;;;;;;;-144.30;97.50;85941.16;5039819;28;20234;-58
2023/10/21 04:47:38;;;;;;;26.70;16.73;;;;;;;-144.30;97.26;85963.03;5041808;28;20220;-58
2023/10/21 04:50:07;;;;;;;25.50;15.27;;;;;;;-144.30;97.29;85953.09;5036684;28;20205;-52
2023/10/21 04:52:34;;;;;;;28.13;16.13;;;;;;;-144.30;97.23;86018.72;5033143;28;20288;-53
2023/10/21 04:55:01;;;;;;;30.17;16.07;;;;;;;-144.30;97.31;85965.03;5032680;28;20668;-53
2023/10/21 04:57:28;;;;;;;23.53;16.37;;;;;;;-144.30;97.17;85957.06;5032586;28;20216;-53
2023/10/21 04:59:55;;;;;;;24.00;15.10;;;;;;;-144.30;97.17;85994.84;5043540;28;20207;-52
2023/10/21 05:02:22;;;;;;;21.13;15.47;;;;;;;-144.30;97.14;85945.16;5034304;28;20212;-51
2023/10/21 05:04:50;;;;;;;22.80;15.40;;;;;;;-144.30;96.59;85895.44;5032796;28;20660;-53
2023/10/21 05:07:18;;;;;;;26.57;15.07;;;;;;;-144.30;96.28;85941.16;5032518;28;20197;-57
2023/10/21 05:09:45;;;;;;;28.83;15.33;;;;;;;-144.30;95.95;85919.31;5032321;28;20225;-58
2023/10/21 05:12:12;;;;;;;30.83;16.13;;;;;;;-144.30;94.99;85907.38;5032438;28;20201;-58
2023/10/21 05:14:39;;;;;;;21.43;15.20;;;;;;;-144.30;94.36;85899.41;5032551;28;20205;-58
2023/10/21 05:17:06;;;;;;;23.93;15.40;;;;;;;-144.30;92.81;85833.81;5032484;28;20635;-58
2023/10/21 05:19:33;;;;;;;22.17;15.03;;;;;;;-144.30;91.55;85817.91;5032288;28;20200;-53
2023/10/21 05:22:00;;;;;;;22.33;15.30;;;;;;;-144.30;90.07;85815.91;5031982;28;20232;-53
2023/10/21 05:24:28;;;;;;;18.70;14.10;;;;;;;-144.30;89.22;85768.19;5032092;28;20287;-53
2023/10/21 05:26:55;;;;;;;25.07;14.70;;;;;;;-144.30;87.71;85718.50;5032340;28;20198;-53
2023/10/21 05:29:22;;;;;;;21.10;14.30;;;;;;;-144.30;86.17;85627.03;5032202;28;20306;-53
2023/10/21 05:31:49;;;;;;;21.10;14.27;;;;;;;-144.30;82.78;85587.28;5032126;28;20223;-53
2023/10/21 05:34:19;;;;;;;23.53;13.77;;;;;;;-144.30;81.51;85479.94;5032387;28;20649;-54
2023/10/21 05:36:46;;;;;;;18.80;13.73;;;;;;;-144.30;77.48;85416.31;5031919;28;20255;-53
2023/10/21 05:39:13;;;;;;;24.17;13.87;;;;;;;-144.30;76.46;85358.66;5031990;28;20205;-54
2023/10/21 05:41:42;;;;;;;20.50;13.40;;;;;;;-144.30;73.64;85314.94;5031949;28;20204;-59
2023/10/21 05:44:09;;;;;;;13.98;12.07;;;;;;;-144.30;72.13;85221.50;5032057;28;20193;-58
2023/10/21 05:46:36;;;;;;;14.82;12.63;;;;;;;-144.30;70.21;85173.78;5030837;28;20197;-58
2023/10/21 05:49:04;;;;;;;19.55;13.68;;;;;;;-144.30;68.29;85090.31;5031684;28;20612;-59
2023/10/21 05:51:31;;;;;;;17.90;13.23;;;;;;;-144.30;66.87;85038.63;5031518;28;20284;-58
2023/10/21 05:53:59;;;;;;;16.60;12.55;;;;;;;-144.30;65.63;85012.78;5031727;28;20221;-54
2023/10/21 05:56:25;;;;;;;15.82;13.02;;;;;;;-144.30;65.44;85014.78;5031801;28;20594;-58
2023/10/21 05:58:54;;;;;;;18.52;12.63;;;;;;;-144.30;65.62;84927.31;5031539;28;20198;-58
2023/10/21 06:01:22;;;;;;;16.75;12.00;;;;;;;-144.30;63.88;84845.81;5031654;28;20232;-58
2023/10/21 06:03:49;;;;;;;22.67;12.65;;;;;;;-144.30;58.20;84800.09;5031707;28;20205;-58
2023/10/21 06:06:17;;;;;;;14.38;11.85;;;;;;;-144.30;55.71;84649.03;5031812;28;20649;-59
2023/10/21 06:08:44;;;;;;;25.38;13.77;;;;;;;-144.30;53.96;84607.31;5031420;28;20217;-53
2023/10/21 06:11:11;;;;;;;18.27;12.15;;;;;;;-144.30;52.85;84482.09;5031588;28;20201;-58
2023/10/21 06:13:38;;;;;;;21.98;12.40;;;;;;;-144.30;51.45;84378.75;5031541;28;20342;-53
2023/10/21 06:16:08;;;;;;;17.17;11.23;;;;;;;-144.30;49.22;84267.47;5031240;28;20208;-53
2023/10/21 06:18:36;;;;;;;20.90;11.63;;;;;;;-144.30;47.38;84084.66;5041077;28;20194;-53
2023/10/21 06:21:04;;;;;;;17.08;11.73;;;;;;;-144.30;45.22;83987.28;5039683;28;20197;-58
2023/10/21 06:23:32;;;;;;;11.23;10.07;;;;;;;-144.30;44.26;83889.91;5040843;28;20291;-59
2023/10/21 06:25:59;;;;;;;14.50;10.65;;;;;;;-144.30;42.02;83719.03;5041813;28;20589;-59
2023/10/21 06:28:26;;;;;;;20.15;10.80;;;;;;;-144.30;40.24;83560.06;5039395;28;20223;-55
2023/10/21 06:30:53;;;;;;;16.60;10.45;;;;;;;-144.30;38.56;83492.50;5047618;28;20219;-54
2023/10/21 06:33:21;;;;;;;16.35;10.85;;;;;;;-144.30;38.83;83464.69;5051075;28;20235;-53
2023/10/21 06:35:49;;;;;;;17.25;10.73;;;;;;;-144.30;38.12;83357.41;5050883;28;20232;-54
2023/10/21 06:38:16;;;;;;;18.88;11.80;;;;;;;-144.30;37.30;83200.47;5051007;28;20207;-53
2023/10/21 06:40:44;;;;;;;15.43;11.38;;;;;;;-144.30;36.71;83194.50;5050730;28;20278;-59
2023/10/21 06:43:11;;;;;;;13.10;11.07;;;;;;;-144.30;37.11;83355.41;5050756;28;20232;-58
2023/10/21 06:45:38;;;;;;;16.33;11.57;;;;;;;-144.30;39.07;83657.41;5049430;28;20580;-59
2023/10/21 06:48:06;;;;;;;14.82;11.68;;;;;;;-144.30;41.44;83939.59;5030722;28;20204;-59
2023/10/21 06:50:36;;;;;;;14.15;12.05;;;;;;;-144.30;43.84;84172.06;5030832;28;20205;-60
2023/10/21 06:53:03;;;;;;;19.30;11.43;;;;;;;-144.30;46.31;84410.56;5037819;28;20190;-60
2023/10/21 06:55:39;;;;;;;12.85;11.55;;;;;;;-144.30;49.13;84535.75;5030942;28;20197;-59
2023/10/21 06:58:06;;;;;;;15.70;12.35;;;;;;;-144.30;51.23;84672.91;5031455;28;20288;-59
2023/10/21 07:00:33;;;;;;;15.82;12.23;;;;;;;-144.30;53.18;84772.28;5050696;28;20649;-58
2023/10/21 07:03:00;;;;;;;32.03;21.48;;;;;;;-144.30;55.03;84812.03;5050752;28;20648;-59
2023/10/21 07:05:28;;;;;;;19.20;12.48;;;;;;;-144.30;56.09;84885.56;5050427;28;20200;-59
2023/10/21 07:07:56;;;;;;;15.45;13.18;;;;;;;-144.30;57.24;84975.00;5050310;28;20192;-57
2023/10/21 07:10:23;;;;;;;22.27;13.68;;;;;;;-144.30;57.67;84947.19;5050140;28;20699;-56
2023/10/21 07:12:51;;;;;;;23.88;13.70;;;;;;;-144.30;58.45;84973.03;5049945;28;20232;-54
2023/10/21 07:15:19;;;;;;;20.45;14.07;;;;;;;-144.30;58.46;84955.13;5045646;28;20197;-54
2023/10/21 07:17:46;;;;;;;24.65;14.45;;;;;;;-144.30;59.30;85014.78;5046872;28;20779;-59
2023/10/21 07:20:13;;;;;;;21.13;14.18;;;;;;;-144.30;60.24;85000.84;5050176;28;20200;-58
2023/10/21 07:22:44;;;;;;;19.95;14.40;;;;;;;-144.30;61.07;85046.56;5049839;28;20250;-57
2023/10/21 07:25:12;;;;;;;29.15;14.80;;;;;;;-144.30;61.74;85058.50;5049761;28;20193;-52
2023/10/21 07:27:39;;;;;;;26.92;13.98;;;;;;;-144.30;61.59;85030.66;5049949;28;20224;-56
2023/10/21 07:30:07;;;;;;;21.88;16.92;;;;;;;-144.30;61.93;85036.63;5050000;28;20227;-58
2023/10/21 07:32:34;;;;;;;26.13;15.55;;;;;;;-144.30;63.22;85074.41;5049824;28;20283;-58
2023/10/21 07:35:01;;;;;;;20.75;15.65;;;;;;;-144.30;64.72;85078.38;5050025;28;20200;-58
2023/10/21 07:37:30;;;;;;;21.65;14.57;;;;;;;-144.30;65.43;85098.25;5050092;28;20287;-58
2023/10/21 07:39:58;;;;;;;21.27;15.10;;;;;;;-144.30;66.13;84945.19;5050469;28;20220;-57
2023/10/21 07:42:26;;;;;;;19.27;14.18;;;;;;;-144.30;66.49;85106.22;5049725;28;20215;-53
2023/10/21 07:44:54;;;;;;;20.38;15.18;;;;;;;-144.30;67.33;85114.16;5049875;28;20586;-57
2023/10/21 07:47:21;;;;;;;20.95;14.80;;;;;;;-144.30;67.33;85090.31;5035620;28;20229;-57
2023/10/21 07:49:50;;;;;;;17.90;15.75;;;;;;;-144.30;67.76;85106.22;5043955;28;20232;-58
2023/10/21 07:52:17;;;;;;;22.20;14.82;;;;;;;-144.30;67.79;85064.47;5049658;28;20207;-58
2023/10/21 07:54:45;;;;;;;18.15;14.55;;;;;;;-144.30;68.23;85074.41;5043365;28;20192;-53
2023/10/21 07:57:12;;;;;;;16.25;14.55;;;;;;;-144.30;68.76;85082.34;5049995;28;20648;-53
2023/10/21 07:59:40;;;;;;;20.42;16.35;;;;;;;-144.30;69.44;84998.88;5047618;28;20201;-53
2023/10/21 08:02:07;;;;;;;16.40;14.73;;;;;;;-144.30;69.61;85094.28;5029651;28;20248;-58
2023/10/21 08:04:34;;;;;;;20.20;15.73;;;;;;;-144.30;69.10;85076.38;5029904;28;20746;-60
2023/10/21 08:07:01;;;;;;;23.33;16.05;;;;;;;-144.30;69.22;85058.50;5029894;28;20204;-58
2023/10/21 08:09:28;;;;;;;24.90;16.27;;;;;;;-144.30;69.23;85056.50;5029821;28;20231;-58
2023/10/21 08:11:55;;;;;;;28.58;17.23;;;;;;;-144.30;69.51;85054.53;5030059;28;20201;-59
2023/10/21 08:14:22;;;;;;;24.80;16.25;;;;;;;-144.30;69.67;85064.47;5029952;28;20260;-55
2023/10/21 08:16:50;;;;;;;25.48;16.88;;;;;;;-144.30;69.62;85054.53;5029928;28;20201;-53
2023/10/21 08:19:18;;;;;;;22.27;16.08;;;;;;;-144.30;69.46;85038.63;5031420;28;20590;-54
2023/10/21 08:21:45;;;;;;;29.20;16.90;;;;;;;-144.30;69.11;85050.53;5033181;28;20201;-54
2023/10/21 08:24:12;;;;;;;25.42;15.85;;;;;;;-144.30;69.73;85078.38;5033628;28;20236;-53
2023/10/21 08:26:39;;;;;;;23.17;15.10;;;;;;;-144.30;70.65;85098.25;5033145;28;20197;-55
2023/10/21 08:29:06;;;;;;;22.27;15.48;;;;;;;-144.30;71.03;85058.50;5042155;28;20623;-54
2023/10/21 08:31:33;;;;;;;33.85;16.27;;;;;;;-144.30;70.48;85082.34;5053226;28;20205;-55
2023/10/21 08:34:01;;;;;;;25.33;15.43;;;;;;;-144.30;70.50;85042.59;5042992;28;20291;-54
2023/10/21 08:36:28;;;;;;;29.73;16.02;;;;;;;-144.30;70.69;85022.72;5033357;28;20209;-55
2023/10/21 08:38:57;;;;;;;23.83;13.60;;;;;;;-144.30;70.36;85038.63;5033229;28;20229;-53
2023/10/21 08:41:23;;;;;;;26.38;13.25;;;;;;;-144.30;70.19;85030.66;5033363;28;20612;-59
2023/10/21 08:43:51;;;;;;;22.35;13.52;;;;;;;-144.30;70.77;85064.47;5033135;28;20584;-59
2023/10/21 08:46:19;;;;;;;26.15;14.52;;;;;;;-144.30;70.53;85022.72;5033147;28;20276;-54
2023/10/21 08:48:47;;;;;;;22.60;14.73;;;;;;;-144.30;70.70;85042.59;5049613;28;20215;-54
2023/10/21 08:51:20;;;;;;;25.58;14.93;;;;;;;-144.30;70.26;85026.69;5072208;28;20585;-54
2023/10/21 08:53:48;;;;;;;22.55;14.50;;;;;;;-144.30;70.21;85020.72;5071964;28;20210;-59
2023/10/21 08:56:16;;;;;;;19.90;13.52;;;;;;;-144.30;69.91;85010.78;5072025;28;20202;-59
2023/10/21 08:58:43;;;;;;;15.63;12.68;;;;;;;-144.30;69.84;85002.84;5072081;28;20207;-53
2023/10/21 09:01:11;;;;;;;16.70;12.85;;;;;;;-144.30;71.49;84963.09;5071868;28;20200;-54
2023/10/21 09:03:37;;;;;;;20.13;12.70;;;;;;;-144.30;69.67;84955.13;5071988;28;20196;-60
2023/10/21 09:06:10;;;;;;;17.23;12.40;;;;;;;-144.30;67.34;84951.16;5071854;28;20282;-59
2023/10/21 09:08:40;;;;;;;21.42;11.18;;;;;;;-144.30;66.41;84943.22;5072002;28;20207;-55
2023/10/21 09:11:08;;;;;;;16.40;10.55;;;;;;;-144.30;66.02;84943.22;5071885;28;20314;-54
2023/10/21 09:13:36;;;;;;;16.73;10.95;;;;;;;-144.30;65.86;84915.38;5071783;28;20192;-59
2023/10/21 09:16:04;;;;;;;18.25;10.73;;;;;;;-144.30;65.68;84901.47;5071625;28;20202;-60
2023/10/21 09:18:34;;;;;;;16.83;10.70;;;;;;;-144.30;65.62;84907.44;5071559;28;20347;-59
2023/10/21 09:21:03;;;;;;;11.38;9.88;;;;;;;-144.30;65.51;84869.66;5071722;28;20207;-59
2023/10/21 09:23:30;;;;;;;22.10;11.88;;;;;;;-144.30;65.97;84883.59;5071535;28;20192;-58
2023/10/21 09:25:59;;;;;;;16.45;10.75;;;;;;;-144.30;65.96;84847.81;5071464;28;20199;-59
2023/10/21 09:28:27;;;;;;;16.27;10.73;;;;;;;-144.30;65.42;84841.84;5071227;28;20669;-59
2023/10/21 09:30:58;;;;;;;12.38;10.10;;;;;;;-144.30;65.40;84819.97;5070786;28;20219;-59
2023/10/21 09:33:26;;;;;;;16.50;10.00;;;;;;;-144.30;64.60;84786.19;5071348;28;20252;-58
2023/10/21 09:36:06;;;;;;;15.82;10.20;;;;;;;-144.30;63.96;84406.59;5051862;22;20241;-77
2023/10/21 09:38:37;;;;;;;17.55;10.45;;;;;;;-144.30;63.66;84810.03;5031272;28;20209;-80
2023/10/21 09:41:09;;;;;;;16.27;11.13;;;;;;;-144.30;63.22;84784.19;5029813;28;20441;-77
2023/10/21 09:43:40;;;;;;;14.80;10.20;;;;;;;-144.30;62.27;84772.28;5031586;28;20206;-79
2023/10/21 09:46:11;;;;;;;17.33;10.70;;;;;;;-144.30;62.08;84808.06;5032001;28;20600;-74
2023/10/21 09:48:41;;;;;;;14.45;11.15;;;;;;;-144.30;62.29;84720.59;5031496;28;20197;-75
2023/10/21 09:51:12;;;;;;;17.42;11.43;;;;;;;-144.30;61.54;84724.56;5031201;28;20229;-74
2023/10/21 09:53:42;;;;;;;13.75;10.70;;;;;;;-144.30;61.30;84736.50;5031399;28;20197;-74
2023/10/21 09:56:17;;;;;;;13.02;10.40;;;;;;;-144.30;61.11;84714.63;5030523;28;20208;-74
2023/10/21 09:58:44;;;;;;;15.93;10.85;;;;;;;-144.30;59.59;84657.00;5037174;28;20207;-74
2023/10/21 10:01:12;;;;;;;21.30;12.52;;;;;;;-144.30;59.46;84686.81;5051902;28;20312;-73
2023/10/21 10:03:41;;;;;;;15.75;12.80;;;;;;;-144.30;59.97;84623.22;5051025;28;20688;-74
2023/10/21 10:06:10;;;;;;;23.15;12.75;;;;;;;-144.30;60.04;84692.78;5050774;28;20291;-73
2023/10/21 10:08:37;;;;;;;17.48;12.60;;;;;;;-144.30;59.27;84678.84;5051237;28;20295;-75
2023/10/21 10:11:15;;;;;;;17.42;12.15;;;;;;;-144.30;58.58;84635.13;5046385;28;20236;-72
2023/10/21 10:13:46;;;;;;;13.98;12.10;;;;;;;-144.30;59.01;84613.28;5043933;28;20688;-76
2023/10/21 10:16:20;;;;;;;17.15;12.57;;;;;;;-144.30;59.02;84581.47;5050600;28;20292;-77
2023/10/21 10:18:50;;;;;;;32.03;12.32;;;;;;;-144.30;59.00;84573.53;5050574;28;20195;-78
2023/10/21 10:21:17;;;;;;;15.90;12.38;;;;;;;-144.30;58.26;84569.53;5051126;28;20262;-79
2023/10/21 10:23:50;;;;;;;17.75;10.48;;;;;;;-144.30;58.16;84593.41;5051178;28;20297;-76
2023/10/21 10:26:28;;;;;;;18.67;10.23;;;;;;;-144.30;56.92;84557.63;5050381;28;20655;-77
2023/10/21 10:28:59;;;;;;;15.82;9.32;;;;;;;-144.30;56.26;84525.81;5030446;28;20204;-80
2023/10/21 10:31:28;;;;;;;17.35;9.57;;;;;;;-144.30;55.81;84565.56;5050340;28;20216;-76
2023/10/21 10:33:55;;;;;;;12.38;8.85;;;;;;;-144.30;55.58;84494.03;5050583;28;20204;-76
2023/10/21 10:36:29;;;;;;;12.65;8.30;;;;;;;-144.30;54.79;84507.94;5051057;28;20640;-76
2023/10/21 10:38:57;;;;;;;11.73;8.45;;;;;;;-144.30;54.74;84494.03;5050790;28;20199;-80
2023/10/21 10:41:25;;;;;;;13.88;8.45;;;;;;;-144.30;54.18;84482.09;5034969;28;20198;-77
2023/10/21 10:43:55;;;;;;;8.60;7.68;;;;;;;-144.30;53.81;84490.06;5030144;28;20297;-75
2023/10/21 10:46:24;;;;;;;10.43;7.72;;;;;;;-144.30;53.96;84235.66;5031139;28;20673;-81
2023/10/21 10:48:52;;;;;;;10.68;8.20;;;;;;;-144.30;53.98;84452.28;5031527;28;20207;-83
2023/10/21 10:51:21;;;;;;;13.88;8.82;;;;;;;-144.30;53.65;84414.53;5031322;28;20719;-80
2023/10/21 10:53:55;;;;;;;9.15;7.57;;;;;;;-144.30;53.47;84442.34;5030147;28;20284;-81
2023/10/21 10:56:22;;;;;;;15.88;8.27;;;;;;;-144.30;53.78;84454.28;5030472;28;20668;-74
2023/10/21 10:58:51;;;;;;;11.80;8.10;;;;;;;-144.30;52.75;84724.56;5030515;28;20201;-75
2023/10/21 11:01:19;;;;;;;11.60;8.07;;;;;;;-144.30;52.39;84416.50;5028980;28;20193;-76
2023/10/21 11:03:55;;;;;;;13.23;7.38;;;;;;;-144.30;51.54;84327.09;5019240;28;20218;-73
2023/10/21 11:06:23;;;;;;;17.88;7.80;;;;;;;-144.30;51.62;84354.91;5010471;28;20649;-77